createdAt,value
2019-04-07T00:00:38.106Z,7.10
2019-04-07T00:03:45.689Z,7.10
2019-04-07T00:06:53.313Z,7.20
2019-04-07T00:10:00.930Z,7.20
2019-04-07T00:13:08.551Z,7.20
2019-04-07T00:16:15.988Z,7.20
2019-04-07T00:19:23.667Z,7.20
2019-04-07T00:22:31.292Z,7.20
2019-04-07T00:25:38.845Z,7.30
2019-04-07T00:28:46.471Z,7.30
2019-04-07T00:31:54.079Z,7.30
2019-04-07T00:35:01.612Z,7.40
2019-04-07T00:38:09.586Z,7.40
2019-04-07T00:41:17.275Z,7.50
2019-04-07T00:44:24.801Z,7.50
2019-04-07T00:47:32.384Z,7.50
2019-04-07T00:50:40.517Z,7.60
2019-04-07T00:53:48.049Z,7.60
2019-04-07T00:56:55.655Z,7.60
2019-04-07T01:00:03.699Z,7.60
2019-04-07T01:03:14.043Z,7.70
2019-04-07T01:06:21.904Z,7.70
2019-04-07T01:09:29.919Z,7.70
2019-04-07T01:12:38.392Z,7.70
2019-04-07T01:15:46.160Z,7.70
2019-04-07T01:18:53.723Z,7.70
2019-04-07T01:22:01.169Z,7.70
2019-04-07T01:25:08.984Z,7.80
2019-04-07T01:28:16.576Z,7.80
2019-04-07T01:31:24.197Z,7.80
2019-04-07T01:34:32.814Z,7.80
2019-04-07T01:37:40.656Z,7.80
2019-04-07T01:40:57.896Z,7.80
2019-04-07T01:44:13.796Z,7.70
2019-04-07T01:47:28.847Z,7.80
2019-04-07T01:51:04.493Z,7.80
2019-04-07T01:54:29.461Z,7.80
2019-04-07T01:57:57.201Z,7.80
2019-04-07T02:01:31.113Z,7.70
2019-04-07T02:04:51.168Z,7.80
2019-04-07T02:08:24.765Z,7.80
2019-04-07T02:11:54.088Z,7.80
2019-04-07T02:15:26.787Z,7.80
2019-04-07T02:18:54.285Z,7.80
2019-04-07T02:22:26.605Z,7.80
2019-04-07T02:25:45.417Z,7.90
2019-04-07T02:29:01.953Z,7.90
2019-04-07T02:32:29.733Z,7.90
2019-04-07T02:36:12.201Z,7.90
2019-04-07T02:39:21.492Z,7.80
2019-04-07T02:42:54.395Z,7.80
2019-04-07T02:46:20.784Z,7.70
2019-04-07T02:49:50.124Z,7.70
2019-04-07T02:53:31.538Z,7.70
2019-04-07T02:57:00.518Z,7.70
2019-04-07T03:00:16.017Z,7.70
2019-04-07T03:03:46.364Z,7.70
2019-04-07T03:07:21.881Z,7.70
2019-04-07T03:10:40.949Z,7.80
2019-04-07T03:13:54.069Z,7.80
2019-04-07T03:17:06.747Z,7.80
2019-04-07T03:20:32.463Z,7.80
2019-04-07T03:24:00.938Z,7.80
2019-04-07T03:27:27.144Z,7.70
2019-04-07T03:30:59.793Z,7.70
2019-04-07T03:34:22.672Z,7.70
2019-04-07T03:37:48.165Z,7.80
2019-04-07T03:41:00.397Z,7.80
2019-04-07T03:44:29.735Z,7.80
2019-04-07T03:47:59.017Z,7.80
2019-04-07T03:51:21.077Z,7.80
2019-04-07T03:54:50.846Z,7.80
2019-04-07T03:58:21.354Z,7.80
2019-04-07T04:01:47.739Z,7.80
2019-04-07T04:05:01.002Z,7.80
2019-04-07T04:08:18.640Z,7.80
2019-04-07T04:11:57.047Z,7.80
2019-04-07T04:15:18.366Z,7.80
2019-04-07T04:18:26.327Z,7.80
2019-04-07T04:21:33.874Z,7.80
2019-04-07T04:24:42.168Z,7.80
2019-04-07T04:27:50.659Z,7.80
2019-04-07T04:30:58.566Z,7.80
2019-04-07T04:34:06.255Z,7.80
2019-04-07T04:37:14.761Z,7.80
2019-04-07T04:40:24.186Z,7.80
2019-04-07T04:43:31.860Z,7.80
2019-04-07T04:46:39.382Z,7.90
2019-04-07T04:49:46.801Z,7.80
2019-04-07T04:52:54.609Z,7.90
2019-04-07T04:56:02.905Z,7.90
2019-04-07T04:59:11.388Z,7.90
2019-04-07T05:02:19.066Z,7.90
2019-04-07T05:05:26.513Z,7.90
2019-04-07T05:08:34.093Z,7.90
2019-04-07T05:11:41.786Z,7.80
2019-04-07T05:14:49.349Z,7.80
2019-04-07T05:17:57.301Z,7.70
2019-04-07T05:21:05.258Z,7.70
2019-04-07T05:24:12.776Z,7.70
2019-04-07T05:27:20.327Z,7.70
2019-04-07T05:30:29.245Z,7.70
2019-04-07T05:33:37.105Z,7.80
2019-04-07T05:36:44.487Z,7.90
2019-04-07T05:39:52.593Z,7.90
2019-04-07T05:43:00.774Z,8.00
2019-04-07T05:46:09.068Z,8.20
2019-04-07T05:49:17.821Z,8.30
2019-04-07T05:52:25.656Z,8.40
2019-04-07T05:55:33.435Z,8.40
2019-04-07T05:58:42.706Z,8.50
2019-04-07T06:01:52.506Z,8.60
2019-04-07T06:05:00.366Z,8.60
2019-04-07T06:08:22.463Z,8.70
2019-04-07T06:11:17.927Z,8.70
2019-04-07T06:14:26.826Z,8.70
2019-04-07T06:17:34.668Z,8.90
2019-04-07T06:20:44.116Z,9.00
2019-04-07T06:23:55.304Z,9.20
2019-04-07T06:27:00.870Z,9.30
2019-04-07T06:30:12.065Z,9.50
2019-04-07T06:33:19.925Z,9.90
2019-04-07T06:36:28.761Z,10.10
2019-04-07T06:39:36.237Z,10.50
2019-04-07T06:42:45.674Z,10.90
2019-04-07T06:46:02.910Z,11.10
2019-04-07T06:49:28.814Z,11.40
2019-04-07T06:52:58.887Z,12.20
2019-04-07T06:56:35.521Z,13.20
2019-04-07T07:00:17.442Z,13.30
2019-04-07T07:03:58.546Z,13.50
2019-04-07T07:07:16.761Z,13.60
2019-04-07T07:10:46.764Z,13.50
2019-04-07T07:14:14.938Z,13.60
2019-04-07T07:17:59.014Z,13.50
2019-04-07T07:21:36.213Z,13.50
2019-04-07T07:24:42.803Z,14.00
2019-04-07T07:27:51.219Z,14.60
2019-04-07T07:31:00.082Z,14.70
2019-04-07T07:34:09.343Z,15.00
2019-04-07T07:37:16.666Z,15.50
2019-04-07T07:40:24.258Z,15.90
2019-04-07T07:43:31.924Z,16.40
2019-04-07T07:46:40.401Z,16.80
2019-04-07T07:49:55.073Z,17.00
2019-04-07T07:53:10.336Z,17.20
2019-04-07T07:56:18.195Z,17.60
2019-04-07T07:59:31.695Z,17.90
2019-04-07T08:02:39.002Z,18.40
2019-04-07T08:05:48.650Z,19.00
2019-04-07T08:09:10.415Z,19.10
2019-04-07T08:12:11.626Z,19.60
2019-04-07T08:15:23.520Z,19.90
2019-04-07T08:18:29.590Z,20.00
2019-04-07T08:21:38.032Z,19.60
2019-04-07T08:24:49.310Z,18.50
2019-04-07T08:27:56.511Z,17.80
2019-04-07T08:31:04.415Z,17.40
2019-04-07T08:34:13.316Z,16.90
2019-04-07T08:37:21.893Z,16.70
2019-04-07T08:40:30.921Z,16.40
2019-04-07T08:43:42.008Z,15.70
2019-04-07T08:46:55.314Z,15.70
2019-04-07T08:50:04.907Z,15.20
2019-04-07T08:53:14.088Z,14.80
2019-04-07T08:56:26.260Z,14.70
2019-04-07T08:59:33.013Z,14.80
2019-04-07T09:02:41.680Z,14.80
2019-04-07T09:05:50.308Z,15.00
2019-04-07T09:08:57.966Z,15.40
2019-04-07T09:12:06.057Z,15.30
2019-04-07T09:15:19.166Z,15.10
2019-04-07T09:18:55.003Z,14.90
2019-04-07T09:22:25.217Z,14.70
2019-04-07T09:25:41.083Z,14.40
2019-04-07T09:28:57.430Z,14.10
2019-04-07T09:32:25.367Z,14.00
2019-04-07T09:35:58.751Z,14.00
2019-04-07T09:39:31.452Z,14.00
2019-04-07T09:43:01.603Z,14.00
2019-04-07T09:46:20.303Z,14.00
2019-04-07T09:49:36.603Z,13.90
2019-04-07T09:53:10.418Z,14.00
2019-04-07T09:56:32.838Z,14.00
2019-04-07T10:00:06.707Z,14.00
2019-04-07T10:03:39.937Z,14.00
2019-04-07T10:07:09.218Z,13.70
2019-04-07T10:10:38.318Z,13.70
2019-04-07T10:14:06.700Z,13.70
2019-04-07T10:17:27.726Z,13.60
2019-04-07T10:20:55.842Z,13.60
2019-04-07T10:24:28.084Z,13.50
2019-04-07T10:27:54.546Z,13.50
2019-04-07T10:31:20.986Z,13.50
2019-04-07T10:34:41.182Z,13.50
2019-04-07T10:38:10.992Z,13.40
2019-04-07T10:41:32.718Z,13.40
2019-04-07T10:45:02.544Z,13.50
2019-04-07T10:48:49.929Z,13.60
2019-04-07T10:52:12.000Z,13.90
2019-04-07T10:55:34.097Z,14.10
2019-04-07T10:58:59.446Z,14.20
2019-04-07T11:02:27.645Z,14.50
2019-04-07T11:06:09.132Z,14.80
2019-04-07T11:09:44.990Z,15.10
2019-04-07T11:13:16.847Z,15.20
2019-04-07T11:16:48.673Z,15.40
2019-04-07T11:20:20.549Z,15.50
2019-04-07T11:23:40.373Z,15.60
2019-04-07T11:27:06.950Z,15.80
2019-04-07T11:30:39.910Z,15.70
2019-04-07T11:34:01.786Z,15.70
2019-04-07T11:37:18.967Z,15.70
2019-04-07T11:40:51.028Z,15.90
2019-04-07T11:44:05.350Z,15.90
2019-04-07T11:47:27.621Z,15.90
2019-04-07T11:50:57.611Z,16.00
2019-04-07T11:54:27.483Z,16.10
2019-04-07T11:57:43.288Z,16.30
2019-04-07T12:01:14.275Z,16.50
2019-04-07T12:04:47.754Z,16.90
2019-04-07T12:08:13.922Z,17.00
2019-04-07T12:11:28.814Z,17.20
2019-04-07T12:15:05.280Z,16.70
2019-04-07T12:18:24.887Z,16.50
2019-04-07T12:21:49.781Z,16.20
2019-04-07T12:25:15.767Z,16.10
2019-04-07T12:28:42.351Z,15.90
2019-04-07T12:32:20.227Z,15.80
2019-04-07T12:35:45.827Z,15.60
2019-04-07T12:39:17.329Z,15.40
2019-04-07T12:42:42.928Z,15.40
2019-04-07T12:46:14.498Z,15.60
2019-04-07T12:49:44.388Z,15.40
2019-04-07T12:53:09.741Z,15.30
2019-04-07T12:56:46.740Z,15.30
2019-04-07T13:00:22.532Z,15.30
2019-04-07T13:03:50.129Z,15.10
2019-04-07T13:07:19.769Z,15.10
2019-04-07T13:11:09.689Z,15.10
2019-04-07T13:14:38.595Z,14.80
2019-04-07T13:18:05.251Z,14.90
2019-04-07T13:21:34.958Z,14.90
2019-04-07T13:24:49.776Z,15.10
2019-04-07T13:28:26.044Z,15.30
2019-04-07T13:31:42.814Z,15.20
2019-04-07T13:35:09.108Z,15.30
2019-04-07T13:38:42.468Z,15.60
2019-04-07T13:42:08.839Z,15.70
2019-04-07T13:45:26.636Z,15.80
2019-04-07T13:49:00.767Z,15.90
2019-04-07T13:52:38.481Z,16.10
2019-04-07T13:56:03.926Z,16.10
2019-04-07T13:59:33.793Z,15.90
2019-04-07T14:02:58.967Z,15.70
2019-04-07T14:06:15.070Z,15.60
2019-04-07T14:09:32.106Z,15.60
2019-04-07T14:13:06.070Z,15.50
2019-04-07T14:16:35.396Z,15.50
2019-04-07T14:20:11.408Z,15.40
2019-04-07T14:23:39.249Z,15.40
2019-04-07T14:27:13.142Z,15.30
2019-04-07T14:30:38.234Z,15.30
2019-04-07T14:34:05.436Z,15.30
2019-04-07T14:37:38.343Z,15.20
2019-04-07T14:41:01.040Z,15.30
2019-04-07T14:44:30.713Z,15.20
2019-04-07T14:47:44.664Z,15.20
2019-04-07T14:51:10.119Z,15.20
2019-04-07T14:54:35.156Z,15.30
2019-04-07T14:58:01.275Z,15.30
2019-04-07T15:01:34.736Z,15.40
2019-04-07T15:04:47.733Z,15.40
2019-04-07T15:08:20.480Z,15.30
2019-04-07T15:11:47.210Z,15.40
2019-04-07T15:14:54.715Z,15.30
2019-04-07T15:18:03.625Z,15.40
2019-04-07T15:21:11.414Z,15.40
2019-04-07T15:24:19.784Z,15.40
2019-04-07T15:27:29.404Z,15.30
2019-04-07T15:30:37.328Z,15.30
2019-04-07T15:33:45.524Z,15.20
2019-04-07T15:36:53.409Z,15.20
2019-04-07T15:40:03.630Z,15.20
2019-04-07T15:43:11.378Z,15.20
2019-04-07T15:46:20.882Z,15.10
2019-04-07T15:49:29.494Z,14.90
2019-04-07T15:52:37.252Z,14.80
2019-04-07T15:55:52.658Z,14.80
2019-04-07T15:58:58.069Z,14.80
2019-04-07T16:02:08.483Z,14.80
2019-04-07T16:05:15.924Z,14.80
2019-04-07T16:08:26.689Z,14.70
2019-04-07T16:11:34.888Z,14.70
2019-04-07T16:14:46.468Z,14.70
2019-04-07T16:17:52.968Z,14.60
2019-04-07T16:21:02.859Z,14.60
2019-04-07T16:24:09.829Z,14.60
2019-04-07T16:27:17.376Z,14.60
2019-04-07T16:30:25.875Z,14.60
2019-04-07T16:33:35.216Z,14.60
2019-04-07T16:36:43.345Z,14.50
2019-04-07T16:39:51.344Z,14.50
2019-04-07T16:43:07.709Z,14.40
2019-04-07T16:46:08.869Z,14.40
2019-04-07T16:49:18.675Z,14.30
2019-04-07T16:52:28.552Z,14.20
2019-04-07T16:55:39.960Z,14.20
2019-04-07T16:58:47.880Z,14.10
2019-04-07T17:01:55.576Z,13.90
2019-04-07T17:05:03.015Z,13.80
2019-04-07T17:08:12.876Z,13.80
2019-04-07T17:11:20.492Z,13.60
2019-04-07T17:14:31.926Z,13.50
2019-04-07T17:17:37.277Z,13.40
2019-04-07T17:20:44.922Z,13.30
2019-04-07T17:23:55.446Z,13.20
2019-04-07T17:27:03.060Z,13.10
2019-04-07T17:30:14.748Z,13.00
2019-04-07T17:33:23.223Z,12.90
2019-04-07T17:36:31.083Z,12.80
2019-04-07T17:39:51.367Z,12.80
2019-04-07T17:43:13.747Z,12.70
2019-04-07T17:46:36.163Z,12.60
2019-04-07T17:50:02.298Z,12.50
2019-04-07T17:53:18.111Z,12.40
2019-04-07T17:56:53.873Z,12.30
2019-04-07T18:00:32.472Z,12.10
2019-04-07T18:03:54.065Z,12.00
2019-04-07T18:07:17.459Z,11.90
2019-04-07T18:10:43.350Z,11.80
2019-04-07T18:14:04.226Z,11.70
2019-04-07T18:17:30.035Z,11.60
2019-04-07T18:21:13.401Z,11.50
2019-04-07T18:24:29.544Z,11.40
2019-04-07T18:27:53.995Z,11.40
2019-04-07T18:31:13.493Z,11.30
2019-04-07T18:34:33.959Z,11.30
2019-04-07T18:37:55.821Z,11.30
2019-04-07T18:41:20.832Z,11.20
2019-04-07T18:44:46.666Z,11.20
2019-04-07T18:48:16.800Z,11.20
2019-04-07T18:52:04.326Z,11.10
2019-04-07T18:55:22.435Z,11.10
2019-04-07T18:58:54.716Z,11.10
2019-04-07T19:02:21.495Z,11.10
2019-04-07T19:05:40.579Z,11.00
2019-04-07T19:09:06.834Z,10.90
2019-04-07T19:12:38.495Z,10.90
2019-04-07T19:16:19.536Z,10.80
2019-04-07T19:19:49.416Z,10.70
2019-04-07T19:23:26.290Z,10.70
2019-04-07T19:26:54.315Z,10.60
2019-04-07T19:30:17.915Z,10.50
2019-04-07T19:33:57.841Z,10.50
2019-04-07T19:37:19.611Z,10.50
2019-04-07T19:40:49.199Z,10.40
2019-04-07T19:44:17.528Z,10.40
2019-04-07T19:47:44.550Z,10.30
2019-04-07T19:51:17.736Z,10.30
2019-04-07T19:54:47.041Z,10.20
2019-04-07T19:58:17.616Z,10.20
2019-04-07T20:01:44.384Z,10.20
2019-04-07T20:05:10.211Z,10.10
2019-04-07T20:08:45.838Z,10.00
2019-04-07T20:12:21.400Z,10.00
2019-04-07T20:15:43.096Z,9.90
2019-04-07T20:19:28.941Z,9.90
2019-04-07T20:22:56.927Z,9.80
2019-04-07T20:26:18.604Z,9.70
2019-04-07T20:29:32.865Z,9.60
2019-04-07T20:32:51.402Z,9.50
2019-04-07T20:36:23.370Z,9.50
2019-04-07T20:39:44.751Z,9.50
2019-04-07T20:43:08.963Z,9.50
2019-04-07T20:46:31.632Z,9.50
2019-04-07T20:50:12.508Z,9.50
2019-04-07T20:53:38.600Z,9.40
2019-04-07T20:57:05.047Z,9.40
2019-04-07T21:00:30.654Z,9.40
2019-04-07T21:03:53.058Z,9.30
2019-04-07T21:07:18.563Z,9.30
2019-04-07T21:10:45.621Z,9.30
2019-04-07T21:14:10.130Z,9.30
2019-04-07T21:17:23.928Z,9.30
2019-04-07T21:20:44.724Z,9.30
2019-04-07T21:24:18.222Z,9.30
2019-04-07T21:27:34.767Z,9.30
2019-04-07T21:31:06.470Z,9.30
2019-04-07T21:34:23.957Z,9.20
2019-04-07T21:38:02.950Z,9.20
2019-04-07T21:41:32.770Z,9.20
2019-04-07T21:44:48.775Z,9.10
2019-04-07T21:48:28.684Z,9.00
2019-04-07T21:52:02.541Z,8.80
2019-04-07T21:55:37.213Z,8.70
2019-04-07T21:58:56.909Z,8.60
2019-04-07T22:02:17.436Z,8.60
2019-04-07T22:05:31.141Z,8.50
2019-04-07T22:08:45.304Z,8.50
2019-04-07T22:11:54.604Z,8.50
2019-04-07T22:15:02.331Z,8.50
2019-04-07T22:18:11.193Z,8.50
2019-04-07T22:21:22.301Z,8.60
2019-04-07T22:24:33.980Z,8.60
2019-04-07T22:27:38.900Z,8.60
2019-04-07T22:30:46.737Z,8.50
2019-04-07T22:33:57.247Z,8.50
2019-04-07T22:37:04.790Z,8.50
2019-04-07T22:40:17.197Z,8.40
2019-04-07T22:43:24.998Z,8.40
2019-04-07T22:46:33.149Z,8.30
2019-04-07T22:49:41.485Z,8.20
2019-04-07T22:52:50.822Z,8.20
2019-04-07T22:55:59.080Z,8.10
2019-04-07T22:59:09.066Z,8.10
2019-04-07T23:02:16.016Z,8.00
2019-04-07T23:05:24.470Z,8.00
2019-04-07T23:08:32.791Z,7.90
2019-04-07T23:11:40.480Z,7.90
2019-04-07T23:14:47.994Z,7.90
2019-04-07T23:17:55.647Z,7.80
2019-04-07T23:21:03.230Z,7.80
2019-04-07T23:24:10.950Z,7.70
2019-04-07T23:27:20.067Z,7.70
2019-04-07T23:30:29.023Z,7.70
2019-04-07T23:33:36.558Z,7.60
2019-04-07T23:36:44.085Z,7.60
2019-04-07T23:39:51.692Z,7.50
2019-04-07T23:42:59.151Z,7.50
2019-04-07T23:46:18.756Z,7.40
2019-04-07T23:49:15.862Z,7.40
2019-04-07T23:52:23.353Z,7.30
2019-04-07T23:55:31.585Z,7.30
2019-04-07T23:58:39.216Z,7.30
